sensor_id;sensor_type;location;lat;lon;timestamp;temperature;humidity
10304;DHT22;5197;48.152;8.590;2023-06-10T00:02:14;16.10;1.00
10304;DHT22;5197;48.152;8.590;2023-06-10T00:04:43;16.00;1.00
10304;DHT22;5197;48.152;8.590;2023-06-10T00:07:10;15.70;1.00
10304;DHT22;5197;48.152;8.590;2023-06-10T00:09:38;15.70;1.00
10304;DHT22;5197;48.152;8.590;2023-06-10T00:12:06;15.60;1.00
10304;DHT22;5197;48.152;8.590;2023-06-10T00:14:37;15.60;1.00
10304;DHT22;5197;48.152;8.590;2023-06-10T00:17:04;15.60;1.00
10304;DHT22;5197;48.152;8.590;2023-06-10T00:19:31;15.50;1.00
10304;DHT22;5197;48.152;8.590;2023-06-10T00:21:59;15.60;1.00
10304;DHT22;5197;48.152;8.590;2023-06-10T00:24:26;15.50;1.00
10304;DHT22;5197;48.152;8.590;2023-06-10T00:26:53;15.60;1.00
10304;DHT22;5197;48.152;8.590;2023-06-10T00:29:20;15.50;1.00
10304;DHT22;5197;48.152;8.590;2023-06-10T00:31:47;15.50;1.00
10304;DHT22;5197;48.152;8.590;2023-06-10T00:34:14;15.50;1.00
10304;DHT22;5197;48.152;8.590;2023-06-10T00:36:41;15.50;1.00
10304;DHT22;5197;48.152;8.590;2023-06-10T00:39:10;15.50;1.00
10304;DHT22;5197;48.152;8.590;2023-06-10T00:41:37;15.50;1.00
10304;DHT22;5197;48.152;8.590;2023-06-10T00:44:04;15.50;1.00
10304;DHT22;5197;48.152;8.590;2023-06-10T00:46:31;15.40;1.00
10304;DHT22;5197;48.152;8.590;2023-06-10T00:49:00;15.40;1.00
10304;DHT22;5197;48.152;8.590;2023-06-10T00:51:27;15.40;1.00
10304;DHT22;5197;48.152;8.590;2023-06-10T00:53:54;15.40;1.00
10304;DHT22;5197;48.152;8.590;2023-06-10T00:56:22;15.40;1.00
10304;DHT22;5197;48.152;8.590;2023-06-10T00:58:49;15.40;1.00
10304;DHT22;5197;48.152;8.590;2023-06-10T01:01:17;15.40;1.00
10304;DHT22;5197;48.152;8.590;2023-06-10T01:03:44;15.40;1.00
10304;DHT22;5197;48.152;8.590;2023-06-10T01:12:23;15.50;1.00
10304;DHT22;5197;48.152;8.590;2023-06-10T01:14:27;15.40;1.00
10304;DHT22;5197;48.152;8.590;2023-06-10T01:16:55;16.60;1.00
10304;DHT22;5197;48.152;8.590;2023-06-10T01:19:27;15.30;1.00
10304;DHT22;5197;48.152;8.590;2023-06-10T01:21:55;15.30;1.00
10304;DHT22;5197;48.152;8.590;2023-06-10T01:24:22;15.20;1.00
10304;DHT22;5197;48.152;8.590;2023-06-10T01:26:51;15.10;1.00
10304;DHT22;5197;48.152;8.590;2023-06-10T01:29:20;15.10;1.00
10304;DHT22;5197;48.152;8.590;2023-06-10T01:32:04;15.00;1.00
10304;DHT22;5197;48.152;8.590;2023-06-10T01:34:33;15.00;1.00
10304;DHT22;5197;48.152;8.590;2023-06-10T01:37:03;14.90;1.00
10304;DHT22;5197;48.152;8.590;2023-06-10T01:39:32;14.70;1.00
10304;DHT22;5197;48.152;8.590;2023-06-10T01:41:59;14.80;1.00
10304;DHT22;5197;48.152;8.590;2023-06-10T01:44:27;14.70;1.00
10304;DHT22;5197;48.152;8.590;2023-06-10T01:46:55;14.60;1.00
10304;DHT22;5197;48.152;8.590;2023-06-10T01:49:22;14.60;1.00
10304;DHT22;5197;48.152;8.590;2023-06-10T01:51:50;14.60;1.00
10304;DHT22;5197;48.152;8.590;2023-06-10T01:54:18;14.60;1.00
10304;DHT22;5197;48.152;8.590;2023-06-10T01:56:45;14.50;1.00
10304;DHT22;5197;48.152;8.590;2023-06-10T01:59:11;14.50;1.00
10304;DHT22;5197;48.152;8.590;2023-06-10T02:01:38;14.40;1.00
10304;DHT22;5197;48.152;8.590;2023-06-10T02:04:06;14.40;1.00
10304;DHT22;5197;48.152;8.590;2023-06-10T02:06:33;14.30;1.00
10304;DHT22;5197;48.152;8.590;2023-06-10T02:09:01;14.30;1.00
10304;DHT22;5197;48.152;8.590;2023-06-10T02:11:28;14.20;1.00
10304;DHT22;5197;48.152;8.590;2023-06-10T02:13:55;14.20;1.00
10304;DHT22;5197;48.152;8.590;2023-06-10T02:16:22;14.10;1.00
10304;DHT22;5197;48.152;8.590;2023-06-10T02:18:49;14.00;1.00
10304;DHT22;5197;48.152;8.590;2023-06-10T02:21:16;13.90;1.00
10304;DHT22;5197;48.152;8.590;2023-06-10T02:23:43;13.70;1.00
10304;DHT22;5197;48.152;8.590;2023-06-10T02:26:10;13.60;1.00
10304;DHT22;5197;48.152;8.590;2023-06-10T02:28:38;13.60;1.00
10304;DHT22;5197;48.152;8.590;2023-06-10T02:31:05;13.60;1.00
10304;DHT22;5197;48.152;8.590;2023-06-10T02:33:32;13.60;1.00
10304;DHT22;5197;48.152;8.590;2023-06-10T02:36:00;13.60;1.00
10304;DHT22;5197;48.152;8.590;2023-06-10T02:38:27;13.60;1.00
10304;DHT22;5197;48.152;8.590;2023-06-10T02:40:54;13.60;1.00
10304;DHT22;5197;48.152;8.590;2023-06-10T02:43:21;13.70;1.00
10304;DHT22;5197;48.152;8.590;2023-06-10T02:45:48;13.70;1.00
10304;DHT22;5197;48.152;8.590;2023-06-10T02:48:15;13.70;1.00
10304;DHT22;5197;48.152;8.590;2023-06-10T02:50:42;13.80;1.00
10304;DHT22;5197;48.152;8.590;2023-06-10T02:53:09;13.80;1.00
10304;DHT22;5197;48.152;8.590;2023-06-10T02:55:37;13.80;1.20
10304;DHT22;5197;48.152;8.590;2023-06-10T02:58:04;13.80;1.00
10304;DHT22;5197;48.152;8.590;2023-06-10T03:00:32;13.80;1.00
10304;DHT22;5197;48.152;8.590;2023-06-10T03:02:59;13.80;1.00
10304;DHT22;5197;48.152;8.590;2023-06-10T03:05:30;13.80;1.00
10304;DHT22;5197;48.152;8.590;2023-06-10T03:07:57;13.80;1.00
10304;DHT22;5197;48.152;8.590;2023-06-10T03:10:24;13.80;1.00
10304;DHT22;5197;48.152;8.590;2023-06-10T03:12:51;13.70;1.00
10304;DHT22;5197;48.152;8.590;2023-06-10T03:15:18;13.70;1.00
10304;DHT22;5197;48.152;8.590;2023-06-10T03:17:47;13.80;1.20
10304;DHT22;5197;48.152;8.590;2023-06-10T03:20:14;13.70;1.10
10304;DHT22;5197;48.152;8.590;2023-06-10T03:22:42;15.30;2.40
10304;DHT22;5197;48.152;8.590;2023-06-10T03:25:10;13.70;1.80
10304;DHT22;5197;48.152;8.590;2023-06-10T03:27:42;13.90;2.00
10304;DHT22;5197;48.152;8.590;2023-06-10T03:30:10;13.70;1.70
10304;DHT22;5197;48.152;8.590;2023-06-10T03:32:37;13.60;2.20
10304;DHT22;5197;48.152;8.590;2023-06-10T03:35:04;13.60;2.10
10304;DHT22;5197;48.152;8.590;2023-06-10T03:37:32;13.60;2.40
10304;DHT22;5197;48.152;8.590;2023-06-10T03:39:59;13.60;2.50
10304;DHT22;5197;48.152;8.590;2023-06-10T03:42:26;13.60;2.80
10304;DHT22;5197;48.152;8.590;2023-06-10T03:44:53;13.50;2.90
10304;DHT22;5197;48.152;8.590;2023-06-10T03:47:20;13.40;3.00
10304;DHT22;5197;48.152;8.590;2023-06-10T03:49:47;13.50;3.20
10304;DHT22;5197;48.152;8.590;2023-06-10T03:52:14;13.50;3.30
10304;DHT22;5197;48.152;8.590;2023-06-10T03:54:41;13.50;3.40
10304;DHT22;5197;48.152;8.590;2023-06-10T03:57:08;13.50;3.40
10304;DHT22;5197;48.152;8.590;2023-06-10T03:59:36;13.50;3.60
10304;DHT22;5197;48.152;8.590;2023-06-10T04:02:03;13.50;3.80
10304;DHT22;5197;48.152;8.590;2023-06-10T04:04:31;13.40;4.00
10304;DHT22;5197;48.152;8.590;2023-06-10T04:06:59;13.50;4.10
10304;DHT22;5197;48.152;8.590;2023-06-10T04:09:26;13.40;3.20
10304;DHT22;5197;48.152;8.590;2023-06-10T04:11:53;13.40;4.30
10304;DHT22;5197;48.152;8.590;2023-06-10T04:14:20;13.40;4.50
10304;DHT22;5197;48.152;8.590;2023-06-10T04:16:47;13.40;4.60
10304;DHT22;5197;48.152;8.590;2023-06-10T04:21:42;13.50;4.40
10304;DHT22;5197;48.152;8.590;2023-06-10T04:24:09;13.50;5.70
10304;DHT22;5197;48.152;8.590;2023-06-10T04:26:36;13.60;5.80
10304;DHT22;5197;48.152;8.590;2023-06-10T04:29:04;13.80;5.30
10304;DHT22;5197;48.152;8.590;2023-06-10T04:31:31;13.90;4.60
10304;DHT22;5197;48.152;8.590;2023-06-10T04:33:59;14.00;4.30
10304;DHT22;5197;48.152;8.590;2023-06-10T04:36:27;14.00;4.00
10304;DHT22;5197;48.152;8.590;2023-06-10T04:38:56;14.10;4.10
10304;DHT22;5197;48.152;8.590;2023-06-10T04:41:23;14.10;4.00
10304;DHT22;5197;48.152;8.590;2023-06-10T04:43:50;14.20;3.70
10304;DHT22;5197;48.152;8.590;2023-06-10T04:46:18;14.30;3.70
10304;DHT22;5197;48.152;8.590;2023-06-10T04:48:45;14.30;3.70
10304;DHT22;5197;48.152;8.590;2023-06-10T04:51:14;14.30;3.60
10304;DHT22;5197;48.152;8.590;2023-06-10T04:53:41;14.40;3.50
10304;DHT22;5197;48.152;8.590;2023-06-10T04:56:08;14.50;3.40
10304;DHT22;5197;48.152;8.590;2023-06-10T04:58:35;14.50;3.40
10304;DHT22;5197;48.152;8.590;2023-06-10T05:01:02;17.10;4.80
10304;DHT22;5197;48.152;8.590;2023-06-10T05:03:29;14.70;3.30
10304;DHT22;5197;48.152;8.590;2023-06-10T05:05:56;14.90;3.00
10304;DHT22;5197;48.152;8.590;2023-06-10T05:08:23;14.90;2.70
10304;DHT22;5197;48.152;8.590;2023-06-10T05:10:51;15.00;2.50
10304;DHT22;5197;48.152;8.590;2023-06-10T05:13:18;15.10;2.50
10304;DHT22;5197;48.152;8.590;2023-06-10T05:15:45;15.20;2.20
10304;DHT22;5197;48.152;8.590;2023-06-10T05:18:13;15.30;1.60
10304;DHT22;5197;48.152;8.590;2023-06-10T05:20:40;15.30;1.10
10304;DHT22;5197;48.152;8.590;2023-06-10T05:23:07;15.40;1.20
10304;DHT22;5197;48.152;8.590;2023-06-10T05:25:34;15.50;2.20
10304;DHT22;5197;48.152;8.590;2023-06-10T05:28:02;15.80;1.50
10304;DHT22;5197;48.152;8.590;2023-06-10T05:30:29;15.60;1.30
10304;DHT22;5197;48.152;8.590;2023-06-10T05:32:56;15.70;1.40
10304;DHT22;5197;48.152;8.590;2023-06-10T05:35:23;15.80;1.50
10304;DHT22;5197;48.152;8.590;2023-06-10T05:37:50;15.90;2.60
10304;DHT22;5197;48.152;8.590;2023-06-10T05:40:17;16.00;1.60
10304;DHT22;5197;48.152;8.590;2023-06-10T05:42:44;16.00;1.60
10304;DHT22;5197;48.152;8.590;2023-06-10T05:45:12;16.20;1.70
10304;DHT22;5197;48.152;8.590;2023-06-10T05:47:39;16.30;1.80
10304;DHT22;5197;48.152;8.590;2023-06-10T05:50:07;16.50;1.90
10304;DHT22;5197;48.152;8.590;2023-06-10T05:52:35;16.60;1.00
10304;DHT22;5197;48.152;8.590;2023-06-10T05:55:03;16.70;1.00
10304;DHT22;5197;48.152;8.590;2023-06-10T05:57:30;16.80;1.00
10304;DHT22;5197;48.152;8.590;2023-06-10T05:59:57;16.90;1.00
10304;DHT22;5197;48.152;8.590;2023-06-10T06:02:25;17.10;1.00
10304;DHT22;5197;48.152;8.590;2023-06-10T06:04:52;17.30;1.00
10304;DHT22;5197;48.152;8.590;2023-06-10T06:07:19;17.40;1.00
10304;DHT22;5197;48.152;8.590;2023-06-10T06:09:47;17.60;1.00
10304;DHT22;5197;48.152;8.590;2023-06-10T06:12:14;17.70;1.00
10304;DHT22;5197;48.152;8.590;2023-06-10T06:14:42;17.70;1.00
10304;DHT22;5197;48.152;8.590;2023-06-10T06:17:09;17.70;1.00
10304;DHT22;5197;48.152;8.590;2023-06-10T06:19:36;17.90;1.00
10304;DHT22;5197;48.152;8.590;2023-06-10T06:22:03;18.20;1.00
10304;DHT22;5197;48.152;8.590;2023-06-10T06:24:30;18.20;1.00
10304;DHT22;5197;48.152;8.590;2023-06-10T06:26:57;18.20;1.00
10304;DHT22;5197;48.152;8.590;2023-06-10T06:29:24;18.40;1.00
10304;DHT22;5197;48.152;8.590;2023-06-10T06:31:52;18.40;1.00
10304;DHT22;5197;48.152;8.590;2023-06-10T06:34:19;18.90;1.00
10304;DHT22;5197;48.152;8.590;2023-06-10T06:36:46;18.60;1.00
10304;DHT22;5197;48.152;8.590;2023-06-10T06:39:13;18.60;1.00
10304;DHT22;5197;48.152;8.590;2023-06-10T06:41:40;18.60;1.00
10304;DHT22;5197;48.152;8.590;2023-06-10T06:44:07;18.70;1.00
10304;DHT22;5197;48.152;8.590;2023-06-10T06:46:34;18.90;1.00
10304;DHT22;5197;48.152;8.590;2023-06-10T06:49:02;19.10;1.00
10304;DHT22;5197;48.152;8.590;2023-06-10T06:51:28;19.40;1.00
10304;DHT22;5197;48.152;8.590;2023-06-10T06:53:57;19.60;1.00
10304;DHT22;5197;48.152;8.590;2023-06-10T06:56:26;19.70;1.00
10304;DHT22;5197;48.152;8.590;2023-06-10T06:58:58;19.60;1.00
10304;DHT22;5197;48.152;8.590;2023-06-10T07:01:25;19.60;1.00
10304;DHT22;5197;48.152;8.590;2023-06-10T07:03:52;19.40;1.00
10304;DHT22;5197;48.152;8.590;2023-06-10T07:06:20;19.40;1.00
10304;DHT22;5197;48.152;8.590;2023-06-10T07:08:48;19.20;1.00
10304;DHT22;5197;48.152;8.590;2023-06-10T07:11:16;19.10;1.00
10304;DHT22;5197;48.152;8.590;2023-06-10T07:13:44;19.20;1.00
10304;DHT22;5197;48.152;8.590;2023-06-10T07:16:11;19.40;1.00
10304;DHT22;5197;48.152;8.590;2023-06-10T07:18:38;19.50;1.00
10304;DHT22;5197;48.152;8.590;2023-06-10T07:21:05;19.70;1.00
10304;DHT22;5197;48.152;8.590;2023-06-10T07:23:33;19.70;1.00
10304;DHT22;5197;48.152;8.590;2023-06-10T07:26:00;19.80;1.00
10304;DHT22;5197;48.152;8.590;2023-06-10T07:28:27;19.90;1.00
10304;DHT22;5197;48.152;8.590;2023-06-10T07:30:54;20.00;1.00
10304;DHT22;5197;48.152;8.590;2023-06-10T07:33:21;20.10;1.00
10304;DHT22;5197;48.152;8.590;2023-06-10T07:35:48;20.10;1.00
10304;DHT22;5197;48.152;8.590;2023-06-10T07:38:17;20.00;1.00
10304;DHT22;5197;48.152;8.590;2023-06-10T07:40:44;20.10;1.00
10304;DHT22;5197;48.152;8.590;2023-06-10T07:43:11;20.20;1.00
10304;DHT22;5197;48.152;8.590;2023-06-10T07:45:42;20.50;1.00
10304;DHT22;5197;48.152;8.590;2023-06-10T07:48:09;20.80;1.00
10304;DHT22;5197;48.152;8.590;2023-06-10T07:50:36;21.00;1.00
10304;DHT22;5197;48.152;8.590;2023-06-10T07:53:03;21.10;1.00
10304;DHT22;5197;48.152;8.590;2023-06-10T07:55:31;21.00;1.00
10304;DHT22;5197;48.152;8.590;2023-06-10T07:57:58;21.00;1.00
10304;DHT22;5197;48.152;8.590;2023-06-10T08:00:25;21.10;1.00
10304;DHT22;5197;48.152;8.590;2023-06-10T08:02:52;21.30;1.00
10304;DHT22;5197;48.152;8.590;2023-06-10T08:05:19;21.40;1.00
10304;DHT22;5197;48.152;8.590;2023-06-10T08:07:47;21.50;1.00
10304;DHT22;5197;48.152;8.590;2023-06-10T08:10:14;21.40;1.00
10304;DHT22;5197;48.152;8.590;2023-06-10T08:12:41;21.60;1.00
10304;DHT22;5197;48.152;8.590;2023-06-10T08:15:09;21.30;1.00
10304;DHT22;5197;48.152;8.590;2023-06-10T08:17:37;21.30;1.00
10304;DHT22;5197;48.152;8.590;2023-06-10T08:20:06;21.40;1.00
10304;DHT22;5197;48.152;8.590;2023-06-10T08:22:33;21.60;1.00
10304;DHT22;5197;48.152;8.590;2023-06-10T08:25:03;21.70;1.00
10304;DHT22;5197;48.152;8.590;2023-06-10T08:27:30;21.60;1.00
10304;DHT22;5197;48.152;8.590;2023-06-10T08:29:57;21.60;1.00
10304;DHT22;5197;48.152;8.590;2023-06-10T08:32:27;21.60;1.00
10304;DHT22;5197;48.152;8.590;2023-06-10T08:34:55;21.70;1.00
10304;DHT22;5197;48.152;8.590;2023-06-10T08:37:22;21.70;1.00
10304;DHT22;5197;48.152;8.590;2023-06-10T08:39:49;21.80;1.00
10304;DHT22;5197;48.152;8.590;2023-06-10T08:42:28;21.80;1.00
10304;DHT22;5197;48.152;8.590;2023-06-10T08:45:02;21.80;1.00
10304;DHT22;5197;48.152;8.590;2023-06-10T08:47:30;21.90;1.00
10304;DHT22;5197;48.152;8.590;2023-06-10T08:50:03;22.00;1.00
10304;DHT22;5197;48.152;8.590;2023-06-10T08:52:38;22.10;1.00
10304;DHT22;5197;48.152;8.590;2023-06-10T08:55:32;22.20;1.00
10304;DHT22;5197;48.152;8.590;2023-06-10T08:58:01;22.20;1.00
10304;DHT22;5197;48.152;8.590;2023-06-10T09:00:30;22.10;1.00
10304;DHT22;5197;48.152;8.590;2023-06-10T09:02:58;22.00;1.00
10304;DHT22;5197;48.152;8.590;2023-06-10T09:05:34;21.90;1.00
10304;DHT22;5197;48.152;8.590;2023-06-10T09:08:05;22.20;1.00
10304;DHT22;5197;48.152;8.590;2023-06-10T09:10:33;22.20;1.00
10304;DHT22;5197;48.152;8.590;2023-06-10T09:13:00;22.40;1.00
10304;DHT22;5197;48.152;8.590;2023-06-10T09:15:27;22.60;1.00
10304;DHT22;5197;48.152;8.590;2023-06-10T09:17:54;22.90;1.00
10304;DHT22;5197;48.152;8.590;2023-06-10T09:20:22;23.20;1.00
10304;DHT22;5197;48.152;8.590;2023-06-10T09:22:50;23.50;1.00
10304;DHT22;5197;48.152;8.590;2023-06-10T09:25:17;23.60;1.00
10304;DHT22;5197;48.152;8.590;2023-06-10T09:30:37;23.10;1.00
10304;DHT22;5197;48.152;8.590;2023-06-10T09:33:11;22.80;1.00
10304;DHT22;5197;48.152;8.590;2023-06-10T09:35:46;22.60;1.00
10304;DHT22;5197;48.152;8.590;2023-06-10T09:38:15;22.40;1.00
10304;DHT22;5197;48.152;8.590;2023-06-10T09:40:49;22.50;1.00
10304;DHT22;5197;48.152;8.590;2023-06-10T09:43:17;22.70;1.00
10304;DHT22;5197;48.152;8.590;2023-06-10T09:45:46;22.90;1.00
10304;DHT22;5197;48.152;8.590;2023-06-10T09:48:14;23.10;1.00
10304;DHT22;5197;48.152;8.590;2023-06-10T09:50:45;23.20;1.00
10304;DHT22;5197;48.152;8.590;2023-06-10T09:53:12;23.30;1.00
10304;DHT22;5197;48.152;8.590;2023-06-10T09:55:41;23.40;1.00
10304;DHT22;5197;48.152;8.590;2023-06-10T09:58:08;23.40;1.00
10304;DHT22;5197;48.152;8.590;2023-06-10T10:00:36;23.40;1.00
10304;DHT22;5197;48.152;8.590;2023-06-10T10:03:03;23.50;1.00
10304;DHT22;5197;48.152;8.590;2023-06-10T10:05:30;23.70;1.00
10304;DHT22;5197;48.152;8.590;2023-06-10T10:07:58;24.00;1.00
10304;DHT22;5197;48.152;8.590;2023-06-10T10:10:25;24.40;1.00
10304;DHT22;5197;48.152;8.590;2023-06-10T10:12:56;24.70;1.00
10304;DHT22;5197;48.152;8.590;2023-06-10T10:15:30;24.80;1.00
10304;DHT22;5197;48.152;8.590;2023-06-10T10:18:09;24.90;1.00
10304;DHT22;5197;48.152;8.590;2023-06-10T10:20:46;25.10;1.00
10304;DHT22;5197;48.152;8.590;2023-06-10T10:23:14;25.20;1.00
10304;DHT22;5197;48.152;8.590;2023-06-10T10:25:51;25.30;1.00
10304;DHT22;5197;48.152;8.590;2023-06-10T10:28:20;25.30;1.00
10304;DHT22;5197;48.152;8.590;2023-06-10T10:30:54;25.30;1.00
10304;DHT22;5197;48.152;8.590;2023-06-10T10:33:48;25.40;1.00
10304;DHT22;5197;48.152;8.590;2023-06-10T10:36:13;25.30;1.00
10304;DHT22;5197;48.152;8.590;2023-06-10T10:38:41;24.90;1.00
10304;DHT22;5197;48.152;8.590;2023-06-10T10:41:10;24.70;1.00
10304;DHT22;5197;48.152;8.590;2023-06-10T10:43:37;24.70;1.00
10304;DHT22;5197;48.152;8.590;2023-06-10T10:46:12;24.60;1.00
10304;DHT22;5197;48.152;8.590;2023-06-10T10:48:40;24.40;1.00
10304;DHT22;5197;48.152;8.590;2023-06-10T10:51:11;24.00;1.00
10304;DHT22;5197;48.152;8.590;2023-06-10T10:53:39;23.70;1.00
10304;DHT22;5197;48.152;8.590;2023-06-10T10:56:16;23.70;1.00
10304;DHT22;5197;48.152;8.590;2023-06-10T10:59:04;23.80;1.00
10304;DHT22;5197;48.152;8.590;2023-06-10T11:01:41;23.90;1.00
10304;DHT22;5197;48.152;8.590;2023-06-10T11:04:09;24.00;1.00
10304;DHT22;5197;48.152;8.590;2023-06-10T11:06:38;24.10;1.00
10304;DHT22;5197;48.152;8.590;2023-06-10T11:09:28;24.30;1.00
10304;DHT22;5197;48.152;8.590;2023-06-10T11:11:59;24.60;1.00
10304;DHT22;5197;48.152;8.590;2023-06-10T11:14:30;24.70;1.00
10304;DHT22;5197;48.152;8.590;2023-06-10T11:16:58;24.60;1.00
10304;DHT22;5197;48.152;8.590;2023-06-10T11:19:33;24.80;1.00
10304;DHT22;5197;48.152;8.590;2023-06-10T11:22:08;24.80;1.00
10304;DHT22;5197;48.152;8.590;2023-06-10T11:24:37;24.80;1.00
10304;DHT22;5197;48.152;8.590;2023-06-10T11:27:21;24.60;1.00
10304;DHT22;5197;48.152;8.590;2023-06-10T11:32:34;24.50;1.00
10304;DHT22;5197;48.152;8.590;2023-06-10T11:35:05;24.40;1.00
10304;DHT22;5197;48.152;8.590;2023-06-10T11:37:34;24.40;1.00
10304;DHT22;5197;48.152;8.590;2023-06-10T11:40:02;24.60;1.00
10304;DHT22;5197;48.152;8.590;2023-06-10T11:42:29;24.80;1.00
10304;DHT22;5197;48.152;8.590;2023-06-10T11:44:56;24.90;1.00
10304;DHT22;5197;48.152;8.590;2023-06-10T11:47:23;25.00;1.00
10304;DHT22;5197;48.152;8.590;2023-06-10T11:49:57;24.90;1.00
10304;DHT22;5197;48.152;8.590;2023-06-10T11:52:31;25.00;1.00
10304;DHT22;5197;48.152;8.590;2023-06-10T11:55:00;25.10;1.00
10304;DHT22;5197;48.152;8.590;2023-06-10T11:57:27;25.30;1.00
10304;DHT22;5197;48.152;8.590;2023-06-10T11:59:54;25.40;1.00
10304;DHT22;5197;48.152;8.590;2023-06-10T12:02:21;25.30;1.00
10304;DHT22;5197;48.152;8.590;2023-06-10T12:04:49;25.10;1.00
10304;DHT22;5197;48.152;8.590;2023-06-10T12:07:19;24.90;1.00
10304;DHT22;5197;48.152;8.590;2023-06-10T12:09:58;24.90;1.00
10304;DHT22;5197;48.152;8.590;2023-06-10T12:12:44;25.10;1.00
10304;DHT22;5197;48.152;8.590;2023-06-10T12:15:23;25.30;1.00
10304;DHT22;5197;48.152;8.590;2023-06-10T12:17:51;25.40;1.00
10304;DHT22;5197;48.152;8.590;2023-06-10T12:20:30;25.20;1.00
10304;DHT22;5197;48.152;8.590;2023-06-10T12:23:00;25.20;1.00
10304;DHT22;5197;48.152;8.590;2023-06-10T12:25:35;25.30;1.00
10304;DHT22;5197;48.152;8.590;2023-06-10T12:28:10;25.50;1.00
10304;DHT22;5197;48.152;8.590;2023-06-10T12:30:37;25.70;1.00
10304;DHT22;5197;48.152;8.590;2023-06-10T12:33:04;25.80;1.00
10304;DHT22;5197;48.152;8.590;2023-06-10T12:35:48;25.80;1.00
10304;DHT22;5197;48.152;8.590;2023-06-10T12:38:23;25.40;1.00
10304;DHT22;5197;48.152;8.590;2023-06-10T12:40:51;25.00;1.00
10304;DHT22;5197;48.152;8.590;2023-06-10T12:43:25;24.80;1.00
10304;DHT22;5197;48.152;8.590;2023-06-10T12:45:52;25.00;1.00
10304;DHT22;5197;48.152;8.590;2023-06-10T12:50:53;25.80;1.00
10304;DHT22;5197;48.152;8.590;2023-06-10T12:53:20;25.80;1.00
10304;DHT22;5197;48.152;8.590;2023-06-10T12:55:48;25.90;1.00
10304;DHT22;5197;48.152;8.590;2023-06-10T12:58:15;25.90;1.00
10304;DHT22;5197;48.152;8.590;2023-06-10T13:00:42;25.90;1.00
10304;DHT22;5197;48.152;8.590;2023-06-10T13:03:10;26.00;1.00
10304;DHT22;5197;48.152;8.590;2023-06-10T13:05:38;26.00;1.00
10304;DHT22;5197;48.152;8.590;2023-06-10T13:08:07;26.20;1.00
10304;DHT22;5197;48.152;8.590;2023-06-10T13:10:34;26.60;1.00
10304;DHT22;5197;48.152;8.590;2023-06-10T13:13:05;26.70;1.00
10304;DHT22;5197;48.152;8.590;2023-06-10T13:15:34;26.80;1.00
10304;DHT22;5197;48.152;8.590;2023-06-10T13:18:10;26.70;1.00
10304;DHT22;5197;48.152;8.590;2023-06-10T13:20:37;26.60;1.00
10304;DHT22;5197;48.152;8.590;2023-06-10T13:23:04;26.50;1.00
10304;DHT22;5197;48.152;8.590;2023-06-10T13:25:31;26.20;1.00
10304;DHT22;5197;48.152;8.590;2023-06-10T13:27:59;26.10;1.00
10304;DHT22;5197;48.152;8.590;2023-06-10T13:30:26;25.90;1.00
10304;DHT22;5197;48.152;8.590;2023-06-10T13:32:53;25.80;1.00
10304;DHT22;5197;48.152;8.590;2023-06-10T13:35:20;25.90;1.00
10304;DHT22;5197;48.152;8.590;2023-06-10T13:37:47;26.30;1.00
10304;DHT22;5197;48.152;8.590;2023-06-10T13:40:15;26.60;1.00
10304;DHT22;5197;48.152;8.590;2023-06-10T13:42:42;26.80;1.00
10304;DHT22;5197;48.152;8.590;2023-06-10T13:45:09;27.00;1.00
10304;DHT22;5197;48.152;8.590;2023-06-10T13:47:37;27.10;1.00
10304;DHT22;5197;48.152;8.590;2023-06-10T13:50:06;27.00;1.00
10304;DHT22;5197;48.152;8.590;2023-06-10T13:52:33;27.00;1.00
10304;DHT22;5197;48.152;8.590;2023-06-10T13:55:00;26.90;1.00
10304;DHT22;5197;48.152;8.590;2023-06-10T13:57:28;26.90;1.00
10304;DHT22;5197;48.152;8.590;2023-06-10T13:59:55;26.70;1.00
10304;DHT22;5197;48.152;8.590;2023-06-10T14:02:23;26.70;1.00
10304;DHT22;5197;48.152;8.590;2023-06-10T14:04:50;26.70;1.00
10304;DHT22;5197;48.152;8.590;2023-06-10T14:07:17;26.70;1.00
10304;DHT22;5197;48.152;8.590;2023-06-10T14:09:44;26.70;1.00
10304;DHT22;5197;48.152;8.590;2023-06-10T14:12:12;26.70;1.00
10304;DHT22;5197;48.152;8.590;2023-06-10T14:14:39;26.70;1.00
10304;DHT22;5197;48.152;8.590;2023-06-10T14:17:06;26.60;1.00
10304;DHT22;5197;48.152;8.590;2023-06-10T14:19:34;26.40;1.00
10304;DHT22;5197;48.152;8.590;2023-06-10T14:22:01;26.40;1.00
10304;DHT22;5197;48.152;8.590;2023-06-10T14:24:29;26.50;1.00
10304;DHT22;5197;48.152;8.590;2023-06-10T14:26:57;26.80;1.00
10304;DHT22;5197;48.152;8.590;2023-06-10T14:29:25;27.20;1.00
10304;DHT22;5197;48.152;8.590;2023-06-10T14:31:55;27.20;1.00
10304;DHT22;5197;48.152;8.590;2023-06-10T14:34:23;27.00;1.00
10304;DHT22;5197;48.152;8.590;2023-06-10T14:36:55;26.80;1.00
10304;DHT22;5197;48.152;8.590;2023-06-10T14:39:23;26.50;1.00
10304;DHT22;5197;48.152;8.590;2023-06-10T14:41:50;26.50;1.00
10304;DHT22;5197;48.152;8.590;2023-06-10T14:44:19;26.60;1.00
10304;DHT22;5197;48.152;8.590;2023-06-10T14:46:46;26.80;1.00
10304;DHT22;5197;48.152;8.590;2023-06-10T14:49:14;27.00;1.00
10304;DHT22;5197;48.152;8.590;2023-06-10T14:51:41;26.90;1.00
10304;DHT22;5197;48.152;8.590;2023-06-10T14:54:08;26.90;1.00
10304;DHT22;5197;48.152;8.590;2023-06-10T14:56:35;27.00;1.00
10304;DHT22;5197;48.152;8.590;2023-06-10T14:59:03;27.10;1.00
10304;DHT22;5197;48.152;8.590;2023-06-10T15:01:30;27.10;1.00
10304;DHT22;5197;48.152;8.590;2023-06-10T15:03:57;27.00;1.00
10304;DHT22;5197;48.152;8.590;2023-06-10T15:06:24;26.80;1.00
10304;DHT22;5197;48.152;8.590;2023-06-10T15:08:51;26.80;1.00
10304;DHT22;5197;48.152;8.590;2023-06-10T15:11:18;27.10;1.00
10304;DHT22;5197;48.152;8.590;2023-06-10T15:13:46;27.40;1.00
10304;DHT22;5197;48.152;8.590;2023-06-10T15:16:13;27.50;1.00
10304;DHT22;5197;48.152;8.590;2023-06-10T15:18:42;27.60;1.00
10304;DHT22;5197;48.152;8.590;2023-06-10T15:21:09;27.50;1.00
10304;DHT22;5197;48.152;8.590;2023-06-10T15:23:36;27.60;1.00
10304;DHT22;5197;48.152;8.590;2023-06-10T15:26:03;27.60;1.00
10304;DHT22;5197;48.152;8.590;2023-06-10T15:28:30;27.70;1.00
10304;DHT22;5197;48.152;8.590;2023-06-10T15:30:57;27.80;1.00
10304;DHT22;5197;48.152;8.590;2023-06-10T15:33:24;28.00;1.00
10304;DHT22;5197;48.152;8.590;2023-06-10T15:35:51;28.10;1.00
10304;DHT22;5197;48.152;8.590;2023-06-10T15:38:19;27.90;1.00
10304;DHT22;5197;48.152;8.590;2023-06-10T15:40:47;27.90;1.00
10304;DHT22;5197;48.152;8.590;2023-06-10T15:43:14;27.90;1.00
10304;DHT22;5197;48.152;8.590;2023-06-10T15:45:41;27.90;1.00
10304;DHT22;5197;48.152;8.590;2023-06-10T15:48:08;28.10;1.00
10304;DHT22;5197;48.152;8.590;2023-06-10T15:50:35;28.20;1.00
10304;DHT22;5197;48.152;8.590;2023-06-10T15:53:02;28.00;1.00
10304;DHT22;5197;48.152;8.590;2023-06-10T15:55:29;28.20;1.00
10304;DHT22;5197;48.152;8.590;2023-06-10T15:57:56;28.20;1.00
10304;DHT22;5197;48.152;8.590;2023-06-10T16:00:27;28.30;1.00
10304;DHT22;5197;48.152;8.590;2023-06-10T16:02:54;28.30;1.00
10304;DHT22;5197;48.152;8.590;2023-06-10T16:05:21;28.30;1.00
10304;DHT22;5197;48.152;8.590;2023-06-10T16:07:49;28.30;1.00
10304;DHT22;5197;48.152;8.590;2023-06-10T16:10:16;28.30;1.00
10304;DHT22;5197;48.152;8.590;2023-06-10T16:12:43;28.30;1.00
10304;DHT22;5197;48.152;8.590;2023-06-10T16:15:11;28.40;1.00
10304;DHT22;5197;48.152;8.590;2023-06-10T16:17:38;28.50;1.00
10304;DHT22;5197;48.152;8.590;2023-06-10T16:20:06;29.30;1.00
10304;DHT22;5197;48.152;8.590;2023-06-10T16:22:33;28.70;1.00
10304;DHT22;5197;48.152;8.590;2023-06-10T16:25:00;28.60;1.00
10304;DHT22;5197;48.152;8.590;2023-06-10T16:27:27;28.50;1.00